Time;durP1;ratioP1;P1;durP2;ratioP2;P2;SDS_P1;SDS_P2;PMS_P1;PMS_P2;Temp;Humidity;BMP_temperature;BMP_pressure;BME280_temperature;BME280_humidity;BME280_pressure;Samples;Min_cycle;Max_cycle;Signal;HPM_P1;HPM_P2
2021/12/11 00:00:54;;;;;;;3.83;1.90;;;;;;;2.14;100.00;93909.50;5011675;28;20187;-59
2021/12/11 00:03:34;;;;;;;2.20;1.50;;;;;;;2.14;100.00;93917.56;5011588;28;20190;-59
2021/12/11 00:06:09;;;;;;;2.17;1.70;;;;;;;2.14;100.00;93919.50;5011558;28;20201;-59
2021/12/11 00:08:35;;;;;;;4.63;1.73;;;;;;;2.11;100.00;93921.03;5011665;28;20533;-60
2021/12/11 00:11:09;;;;;;;2.37;1.57;;;;;;;2.12;100.00;93927.19;5011788;28;20253;-61
2021/12/11 00:13:38;;;;;;;2.83;1.53;;;;;;;2.12;100.00;93932.56;5011903;28;20272;-60
2021/12/11 00:16:06;;;;;;;3.80;1.53;;;;;;;2.15;100.00;93931.81;5011981;28;20193;-62
2021/12/11 00:18:33;;;;;;;2.20;1.40;;;;;;;2.15;100.00;93940.63;5011690;28;20197;-64
2021/12/11 00:21:09;;;;;;;2.13;1.50;;;;;;;2.15;100.00;93932.56;5011852;28;20234;-62
2021/12/11 00:23:40;;;;;;;2.33;1.20;;;;;;;2.16;100.00;93939.50;5011408;28;20251;-63
2021/12/11 00:26:08;;;;;;;3.50;1.43;;;;;;;2.15;100.00;93948.72;5011351;28;20210;-63
2021/12/11 00:28:46;;;;;;;3.37;1.67;;;;;;;2.16;100.00;93950.28;5011291;28;20206;-62
2021/12/11 00:31:12;;;;;;;2.07;1.43;;;;;;;2.16;100.00;93960.25;5011598;28;20194;-60
2021/12/11 00:33:38;;;;;;;1.53;1.20;;;;;;;2.15;100.00;93962.19;5011656;28;20595;-53
2021/12/11 00:36:13;;;;;;;2.50;1.50;;;;;;;2.18;100.00;93964.09;5011565;28;20198;-50
2021/12/11 00:38:40;;;;;;;3.10;1.57;;;;;;;2.16;100.00;93961.03;5011469;28;20193;-50
2021/12/11 00:41:10;;;;;;;4.90;1.90;;;;;;;2.16;100.00;93966.44;5011203;28;20187;-51
2021/12/11 00:43:37;;;;;;;2.70;1.40;;;;;;;2.17;100.00;93976.03;5011127;28;20201;-49
2021/12/11 00:46:06;;;;;;;3.00;1.70;;;;;;;2.22;100.00;93989.09;5011017;28;20197;-53
2021/12/11 00:48:33;;;;;;;2.67;1.23;;;;;;;2.17;100.00;93997.56;5011094;28;20183;-48
2021/12/11 00:51:06;;;;;;;1.40;1.20;;;;;;;2.18;100.00;93999.09;5011330;28;20189;-50
2021/12/11 00:53:36;;;;;;;2.13;1.10;;;;;;;2.22;100.00;94001.81;5011541;28;20183;-59
2021/12/11 00:56:24;;;;;;;2.20;1.33;;;;;;;2.23;100.00;94006.78;5011333;28;20186;-59
2021/12/11 00:58:53;;;;;;;2.40;1.10;;;;;;;2.25;100.00;94007.19;5011404;28;20659;-58
2021/12/11 01:01:24;;;;;;;3.33;1.30;;;;;;;2.28;100.00;94006.41;5011426;28;20189;-59
2021/12/11 01:04:32;;;;;;;1.50;1.20;;;;;;;2.33;100.00;94018.75;5011092;28;20263;-59
2021/12/11 01:07:03;;;;;;;1.30;1.20;;;;;;;2.29;100.00;94034.88;5014775;28;20197;-60
2021/12/11 01:09:32;;;;;;;1.70;1.03;;;;;;;2.30;100.00;94036.41;5014934;28;20265;-51
2021/12/11 01:12:04;;;;;;;1.17;1.07;;;;;;;2.33;100.00;94043.72;5014466;28;20217;-47
2021/12/11 01:14:41;;;;;;;2.57;1.10;;;;;;;2.32;100.00;94049.50;5014812;28;20198;-46
2021/12/11 01:17:18;;;;;;;1.93;1.40;;;;;;;2.33;100.00;94048.38;5014778;28;20232;-48
2021/12/11 01:19:46;;;;;;;1.20;1.10;;;;;;;2.28;100.00;94052.19;5016061;28;20187;-51
2021/12/11 01:22:34;;;;;;;1.80;1.20;;;;;;;2.29;100.00;94055.63;5014433;28;20282;-51
2021/12/11 01:25:24;;;;;;;1.77;1.13;;;;;;;2.30;100.00;94068.72;5014799;28;20674;-58
2021/12/11 01:28:00;;;;;;;1.90;1.10;;;;;;;2.29;100.00;94067.19;5014194;28;20202;-54
2021/12/11 01:30:42;;;;;;;1.60;1.50;;;;;;;2.27;100.00;94069.50;5014230;28;20530;-52
2021/12/11 01:33:09;;;;;;;4.97;2.87;;;;;;;2.30;100.00;94082.19;5015697;28;20203;-52
2021/12/11 01:35:35;;;;;;;7.37;5.23;;;;;;;2.26;100.00;94073.34;5014176;28;20280;-54
2021/12/11 01:38:12;;;;;;;1.30;1.20;;;;;;;2.27;100.00;94068.72;5014117;28;20187;-55
2021/12/11 01:40:38;;;;;;;1.33;1.10;;;;;;;2.32;100.00;94077.19;5014088;28;20196;-53
2021/12/11 01:43:07;;;;;;;1.10;1.00;;;;;;;2.26;100.00;94084.09;5013872;28;20183;-50
2021/12/11 01:45:35;;;;;;;0.97;0.93;;;;;;;2.27;100.00;94085.66;5014070;28;20225;-61
2021/12/11 01:48:01;;;;;;;1.23;1.00;;;;;;;2.29;100.00;94087.94;5013749;28;20241;-53
2021/12/11 01:50:32;;;;;;;1.30;1.20;;;;;;;2.34;100.00;94092.97;5013945;28;20191;-55
2021/12/11 01:53:05;;;;;;;1.20;1.10;;;;;;;2.28;100.00;94097.19;5013956;28;20207;-55
2021/12/11 01:55:43;;;;;;;1.37;1.27;;;;;;;2.27;100.00;94099.13;5013721;28;20229;-53
2021/12/11 01:58:12;;;;;;;2.77;1.30;;;;;;;2.26;100.00;94100.25;5013922;28;20183;-50
2021/12/11 02:00:52;;;;;;;3.50;1.10;;;;;;;2.27;100.00;94107.22;5013528;28;20194;-53
2021/12/11 02:03:23;;;;;;;2.40;1.10;;;;;;;2.27;100.00;94112.59;5013487;28;20182;-59
2021/12/11 02:05:49;;;;;;;1.63;1.20;;;;;;;2.28;100.00;94113.34;5013809;28;20216;-57
2021/12/11 02:08:17;;;;;;;1.10;1.00;;;;;;;2.25;100.00;94117.59;5013422;28;20280;-56
2021/12/11 02:10:57;;;;;;;2.10;1.30;;;;;;;2.25;100.00;94114.88;5013612;28;20198;-56
2021/12/11 02:13:38;;;;;;;1.73;1.47;;;;;;;2.26;100.00;94111.03;5013272;28;20611;-56
2021/12/11 02:16:06;;;;;;;1.50;1.10;;;;;;;2.25;100.00;94120.28;5012718;28;20195;-58
2021/12/11 02:18:35;;;;;;;1.10;1.00;;;;;;;2.33;100.00;94116.44;5013244;28;20197;-57
2021/12/11 02:21:26;;;;;;;1.90;1.10;;;;;;;2.28;100.00;94119.50;5013162;28;20254;-62
2021/12/11 02:23:58;;;;;;;1.40;1.30;;;;;;;2.29;100.00;94120.25;5013391;28;20550;-56
2021/12/11 02:26:25;;;;;;;1.70;1.27;;;;;;;2.28;100.00;94114.13;5013240;28;20200;-54
2021/12/11 02:28:58;;;;;;;2.20;1.67;;;;;;;2.26;100.00;94121.81;5013217;28;20225;-57
2021/12/11 02:31:43;;;;;;;4.43;1.30;;;;;;;2.27;100.00;94122.59;5013208;28;20201;-54
2021/12/11 02:34:29;;;;;;;1.40;1.10;;;;;;;2.24;100.00;94129.50;5012666;28;20198;-52
2021/12/11 02:37:03;;;;;;;1.30;1.20;;;;;;;2.22;100.00;94134.50;5013013;28;20192;-55
2021/12/11 02:39:38;;;;;;;4.67;1.10;;;;;;;2.24;100.00;94137.59;5013212;28;20200;-63
2021/12/11 02:42:10;;;;;;;1.70;1.20;;;;;;;2.22;100.00;94141.81;5012819;28;20186;-61
2021/12/11 02:44:48;;;;;;;3.23;1.30;;;;;;;2.20;100.00;94138.72;5012751;28;20237;-61
2021/12/11 02:47:19;;;;;;;2.27;1.30;;;;;;;2.25;100.00;94162.56;5012688;28;20191;-61
2021/12/11 02:49:44;;;;;;;1.50;1.10;;;;;;;2.25;100.00;94160.66;5013032;28;20189;-62
2021/12/11 02:52:24;;;;;;;2.40;1.37;;;;;;;2.25;100.00;94163.34;5012494;28;20215;-61
2021/12/11 02:55:11;;;;;;;1.20;1.10;;;;;;;2.26;100.00;94164.88;5012556;28;20277;-61
2021/12/11 02:57:47;;;;;;;1.33;1.23;;;;;;;2.25;100.00;94179.50;5012471;28;20260;-62
2021/12/11 03:00:31;;;;;;;2.03;1.30;;;;;;;2.26;100.00;94181.03;5012806;28;20195;-61
2021/12/11 03:03:04;;;;;;;1.23;1.07;;;;;;;2.25;100.00;94187.59;5012746;28;20220;-61
2021/12/11 03:05:41;;;;;;;1.03;0.93;;;;;;;2.28;100.00;94184.13;5012596;28;20214;-61
2021/12/11 03:08:10;;;;;;;0.93;0.93;;;;;;;2.26;100.00;94194.50;5012367;28;20762;-62
2021/12/11 03:10:37;;;;;;;1.50;1.10;;;;;;;2.28;100.00;94197.59;5012290;28;20191;-61
2021/12/11 03:13:04;;;;;;;1.27;1.10;;;;;;;2.28;100.00;94189.53;5012499;28;20262;-61
2021/12/11 03:15:30;;;;;;;1.83;1.30;;;;;;;2.27;100.00;94203.38;5012337;28;20260;-54
2021/12/11 03:17:55;;;;;;;1.30;1.20;;;;;;;2.26;100.00;94207.97;5012423;28;20201;-54
2021/12/11 03:20:24;;;;;;;2.60;1.10;;;;;;;2.30;100.00;94203.38;5012301;28;20221;-54
2021/12/11 03:22:50;;;;;;;1.50;1.27;;;;;;;2.29;100.00;94211.81;5012527;28;20294;-54
2021/12/11 03:25:19;;;;;;;1.97;1.20;;;;;;;2.32;100.00;94214.53;5012321;28;20622;-52
2021/12/11 03:27:45;;;;;;;2.10;1.10;;;;;;;2.33;100.00;94212.63;5011597;28;20189;-55
2021/12/11 03:30:16;;;;;;;1.60;1.40;;;;;;;2.34;100.00;94216.84;5011878;28;20191;-54
2021/12/11 03:32:42;;;;;;;2.10;1.20;;;;;;;2.33;100.00;94218.78;5012056;28;20207;-52
2021/12/11 03:35:09;;;;;;;2.63;1.20;;;;;;;2.34;100.00;94223.00;5011705;28;20201;-55
2021/12/11 03:37:35;;;;;;;1.30;1.20;;;;;;;2.33;100.00;94224.16;5012375;28;20203;-53
2021/12/11 03:40:04;;;;;;;2.10;1.13;;;;;;;2.30;100.00;94232.97;5011927;28;20186;-49
2021/12/11 03:42:34;;;;;;;2.50;1.30;;;;;;;2.36;100.00;94239.56;5011971;28;20187;-50
2021/12/11 03:45:02;;;;;;;1.73;1.30;;;;;;;2.37;100.00;94245.72;5011907;28;20239;-53
2021/12/11 03:47:32;;;;;;;1.33;1.23;;;;;;;2.35;100.00;94251.50;5011807;28;20187;-52
2021/12/11 03:49:58;;;;;;;1.70;1.30;;;;;;;2.30;100.00;94259.16;5011713;28;20183;-51
2021/12/11 03:52:25;;;;;;;2.60;1.40;;;;;;;2.30;100.00;94261.84;5011931;28;20183;-62
2021/12/11 03:54:52;;;;;;;1.90;1.37;;;;;;;2.30;100.00;94254.53;5011914;28;20183;-51
2021/12/11 03:57:23;;;;;;;3.40;1.37;;;;;;;2.31;100.00;94258.78;5011809;28;20190;-55
2021/12/11 03:59:49;;;;;;;1.47;1.20;;;;;;;2.28;100.00;94251.47;5011687;28;20218;-53
2021/12/11 04:02:22;;;;;;;1.93;1.60;;;;;;;2.32;100.00;94262.22;5011739;28;20194;-50
2021/12/11 04:04:52;;;;;;;1.73;1.57;;;;;;;2.29;100.00;94266.47;5011600;28;20215;-53
2021/12/11 04:07:23;;;;;;;2.23;1.40;;;;;;;2.29;100.00;94263.75;5011932;28;20210;-53
2021/12/11 04:09:49;;;;;;;3.70;1.60;;;;;;;2.26;100.00;94269.16;5011741;28;20200;-53
2021/12/11 04:12:16;;;;;;;2.73;1.40;;;;;;;2.25;100.00;94275.66;5011457;28;20194;-65
2021/12/11 04:14:44;;;;;;;2.83;1.57;;;;;;;2.28;100.00;94273.00;5011741;28;20281;-54
2021/12/11 04:17:12;;;;;;;1.50;1.40;;;;;;;2.21;100.00;94278.34;5011783;28;20206;-54
2021/12/11 04:19:39;;;;;;;2.73;1.40;;;;;;;2.17;100.00;94285.66;5011449;28;20540;-56
2021/12/11 04:22:05;;;;;;;1.43;1.33;;;;;;;2.15;100.00;94287.94;5011689;28;20199;-55
2021/12/11 04:24:33;;;;;;;1.77;1.60;;;;;;;2.14;100.00;94291.78;5011201;28;20310;-54
2021/12/11 04:27:02;;;;;;;3.37;1.50;;;;;;;2.09;100.00;94289.44;5011291;28;20201;-54
2021/12/11 04:29:29;;;;;;;3.27;1.70;;;;;;;2.04;100.00;94297.88;5011278;28;20625;-61
2021/12/11 04:31:55;;;;;;;3.00;1.50;;;;;;;2.05;100.00;94299.44;5011481;28;20706;-62
2021/12/11 04:34:23;;;;;;;2.33;1.60;;;;;;;1.96;100.00;94298.97;5011137;28;20292;-63
2021/12/11 04:36:57;;;;;;;3.63;1.63;;;;;;;1.92;100.00;94306.25;5011453;28;20634;-62
2021/12/11 04:39:24;;;;;;;1.80;1.33;;;;;;;1.88;100.00;94310.84;5012270;28;20263;-62
2021/12/11 04:42:01;;;;;;;2.60;1.57;;;;;;;1.81;100.00;94300.03;5014965;28;20218;-62
2021/12/11 04:44:40;;;;;;;2.37;1.30;;;;;;;1.79;100.00;94321.16;5014995;28;20220;-62
2021/12/11 04:47:11;;;;;;;2.40;1.40;;;;;;;1.78;100.00;94316.91;5015284;28;20183;-45
2021/12/11 04:49:47;;;;;;;3.07;1.43;;;;;;;1.73;100.00;94313.81;5015160;28;20193;-60
2021/12/11 04:52:31;;;;;;;3.13;1.60;;;;;;;1.75;100.00;94328.41;5014826;28;20174;-62
2021/12/11 05:03:28;;;;;;;3.07;1.40;;;;;;;1.63;100.00;94328.72;5015966;28;20193;-62
2021/12/11 05:06:18;;;;;;;1.43;1.33;;;;;;;1.63;100.00;94342.16;5015459;28;20318;-62
2021/12/11 05:11:42;;;;;;;2.73;1.60;;;;;;;1.66;100.00;94352.19;5015960;28;20190;-62
2021/12/11 05:14:12;;;;;;;3.10;1.60;;;;;;;1.63;100.00;94350.25;5014688;28;20194;-61
2021/12/11 05:16:38;;;;;;;3.10;1.33;;;;;;;1.63;100.00;94352.94;5014474;28;20197;-61
2021/12/11 05:19:04;;;;;;;2.43;1.50;;;;;;;1.59;100.00;94356.72;5014343;28;20217;-61
2021/12/11 05:21:29;;;;;;;3.23;1.70;;;;;;;1.56;100.00;94363.63;5014504;28;20193;-61
2021/12/11 05:23:55;;;;;;;1.70;1.40;;;;;;;1.57;100.00;94365.16;5014261;28;20188;-61
2021/12/11 05:26:21;;;;;;;3.70;1.70;;;;;;;1.60;100.00;94372.50;5014510;28;20194;-61
2021/12/11 05:28:48;;;;;;;1.50;1.40;;;;;;;1.58;100.00;94377.50;5014114;28;20183;-68
2021/12/11 05:31:14;;;;;;;2.10;1.40;;;;;;;1.58;100.00;94380.19;5014109;28;20247;-67
2021/12/11 05:33:40;;;;;;;1.97;1.60;;;;;;;1.61;100.00;94384.81;5014267;28;20227;-66
2021/12/11 05:36:08;;;;;;;3.20;1.40;;;;;;;1.62;100.00;94388.28;5014037;28;20189;-66
2021/12/11 05:38:39;;;;;;;2.53;1.60;;;;;;;1.58;100.00;94390.94;5014241;28;20181;-65
2021/12/11 05:41:07;;;;;;;2.43;1.53;;;;;;;1.55;100.00;94388.97;5014283;28;20639;-64
2021/12/11 05:43:34;;;;;;;1.80;1.50;;;;;;;1.53;100.00;94377.81;5013762;28;20184;-79
2021/12/11 05:45:59;;;;;;;1.57;1.37;;;;;;;1.51;100.00;94398.94;5013649;28;20300;-55
2021/12/11 05:48:25;;;;;;;1.40;1.30;;;;;;;1.53;100.00;94396.63;5014149;28;20216;-55
2021/12/11 05:50:54;;;;;;;3.10;1.50;;;;;;;1.52;100.00;94389.72;5013136;28;20262;-53
2021/12/11 05:53:21;;;;;;;2.73;1.60;;;;;;;1.51;100.00;94395.47;5013951;28;20189;-52
2021/12/11 05:55:51;;;;;;;1.83;1.50;;;;;;;1.51;100.00;94403.53;5013785;28;20231;-56
2021/12/11 05:58:34;;;;;;;1.60;1.50;;;;;;;1.45;100.00;94396.97;5013682;28;20230;-53
2021/12/11 06:01:01;;;;;;;3.07;1.60;;;;;;;1.47;100.00;94405.41;5013794;28;20189;-63
2021/12/11 06:03:26;;;;;;;2.17;1.50;;;;;;;1.43;100.00;94405.41;5013572;28;20195;-58
2021/12/11 06:05:51;;;;;;;2.33;1.50;;;;;;;1.44;100.00;94401.56;5013445;28;20213;-56
2021/12/11 06:08:17;;;;;;;2.17;1.50;;;;;;;1.46;100.00;94410.00;5013444;28;20213;-59
2021/12/11 06:10:42;;;;;;;2.23;1.40;;;;;;;1.43;100.00;94408.09;5013467;28;20208;-59
2021/12/11 06:13:09;;;;;;;1.60;1.47;;;;;;;1.46;100.00;94412.69;5013454;28;20181;-57
2021/12/11 06:15:35;;;;;;;1.90;1.60;;;;;;;1.46;100.00;94423.47;5013617;28;20196;-59
2021/12/11 06:18:02;;;;;;;1.57;1.47;;;;;;;1.49;100.00;94422.72;5013662;28;20192;-53
2021/12/11 06:20:30;;;;;;;1.60;1.50;;;;;;;1.50;100.00;94423.50;5013594;28;20662;-49
2021/12/11 06:22:55;;;;;;;1.80;1.50;;;;;;;1.51;100.00;94427.75;5013393;28;20186;-47
2021/12/11 06:25:27;;;;;;;1.80;1.60;;;;;;;1.52;100.00;94434.66;5013254;28;20270;-48
2021/12/11 06:27:54;;;;;;;1.97;1.60;;;;;;;1.55;100.00;94436.63;5012780;28;20498;-47
2021/12/11 06:30:19;;;;;;;2.27;1.60;;;;;;;1.55;100.00;94453.53;5013113;28;20223;-48
2021/12/11 06:32:47;;;;;;;5.17;2.17;;;;;;;1.55;100.00;94453.53;5013222;28;20209;-47
2021/12/11 06:35:38;;;;;;;2.73;2.00;;;;;;;1.59;100.00;94459.72;5013054;28;20197;-46
2021/12/11 06:38:05;;;;;;;2.17;1.90;;;;;;;1.60;100.00;94471.28;5013078;28;20233;-52
2021/12/11 06:40:31;;;;;;;3.13;1.70;;;;;;;1.61;100.00;94472.81;5012815;28;20192;-54
2021/12/11 06:42:56;;;;;;;2.77;1.90;;;;;;;1.63;100.00;94476.66;5012921;28;20201;-54
2021/12/11 06:45:26;;;;;;;1.53;1.40;;;;;;;1.64;100.00;94483.59;5013090;28;20210;-54
2021/12/11 06:47:51;;;;;;;2.57;1.60;;;;;;;1.69;100.00;94482.50;5012735;28;20185;-55
2021/12/11 06:50:18;;;;;;;1.80;1.70;;;;;;;1.65;100.00;94490.53;5012388;28;20200;-54
2021/12/11 06:52:45;;;;;;;3.07;1.63;;;;;;;1.69;100.00;94496.72;5012946;28;20190;-56
2021/12/11 06:55:12;;;;;;;2.93;2.00;;;;;;;1.72;100.00;94501.38;5012454;28;20275;-55
2021/12/11 06:57:38;;;;;;;4.53;2.90;;;;;;;1.75;100.00;94495.22;5012873;28;20189;-58
2021/12/11 07:00:06;;;;;;;2.80;1.63;;;;;;;1.79;100.00;94501.41;5012410;28;20209;-58
2021/12/11 07:02:32;;;;;;;2.13;1.83;;;;;;;1.84;100.00;94511.09;5012115;28;20644;-60
2021/12/11 07:04:57;;;;;;;2.73;1.87;;;;;;;1.82;100.00;94516.84;5012776;28;20210;-58
2021/12/11 07:07:26;;;;;;;2.97;1.90;;;;;;;1.86;100.00;94523.03;5012608;28;20216;-60
2021/12/11 07:09:54;;;;;;;2.00;1.60;;;;;;;1.86;100.00;94528.41;5012659;28;20220;-62
2021/12/11 07:12:21;;;;;;;3.00;1.80;;;;;;;1.89;100.00;94533.06;5012546;28;20208;-62
2021/12/11 07:14:47;;;;;;;5.43;2.23;;;;;;;1.88;100.00;94536.91;5012498;28;20212;-65
2021/12/11 07:17:13;;;;;;;3.00;1.83;;;;;;;1.88;100.00;94538.81;5012145;28;20516;-56
2021/12/11 07:19:39;;;;;;;2.40;1.57;;;;;;;1.91;100.00;94551.53;5012107;28;20191;-56
2021/12/11 07:22:05;;;;;;;3.40;2.40;;;;;;;1.90;100.00;94553.44;5012452;28;20212;-56
2021/12/11 07:24:37;;;;;;;4.70;2.90;;;;;;;1.92;100.00;94559.25;5012055;28;20220;-57
2021/12/11 07:27:06;;;;;;;4.30;2.80;;;;;;;1.95;100.00;94569.28;5012013;28;20638;-60
2021/12/11 07:29:32;;;;;;;3.60;2.47;;;;;;;2.00;100.00;94571.63;5012070;28;20200;-60
2021/12/11 07:31:58;;;;;;;3.43;2.10;;;;;;;2.01;100.00;94578.53;5012279;28;20193;-61
2021/12/11 07:34:24;;;;;;;3.73;1.80;;;;;;;2.00;100.00;94593.16;5012166;28;20287;-61
2021/12/11 07:36:50;;;;;;;2.63;2.10;;;;;;;2.06;100.00;94594.38;5012429;28;20618;-59
2021/12/11 07:39:20;;;;;;;2.50;2.30;;;;;;;2.09;100.00;94596.34;5013246;28;20184;-60
2021/12/11 07:41:46;;;;;;;3.27;2.10;;;;;;;2.12;100.00;94600.22;5011793;28;20185;-60
2021/12/11 07:44:13;;;;;;;2.13;1.90;;;;;;;2.18;100.00;94610.28;5011819;28;20217;-59
2021/12/11 07:46:39;;;;;;;4.10;2.03;;;;;;;2.21;100.00;94606.84;5011949;28;20259;-60
2021/12/11 07:49:06;;;;;;;2.37;1.70;;;;;;;2.18;100.00;94612.97;5011545;28;20202;-59
2021/12/11 07:51:34;;;;;;;2.50;1.67;;;;;;;2.25;100.00;94618.44;5012837;28;20197;-57
2021/12/11 07:54:00;;;;;;;4.13;1.90;;;;;;;2.27;100.00;94624.22;5011483;28;20283;-73
2021/12/11 07:56:26;;;;;;;1.70;1.60;;;;;;;2.38;100.00;94627.03;5012037;28;20668;-67
2021/12/11 07:58:57;;;;;;;2.33;1.77;;;;;;;2.37;100.00;94637.00;5011538;28;20191;-73
2021/12/11 08:01:23;;;;;;;2.70;1.70;;;;;;;2.42;100.00;94647.47;5011932;28;20194;-70
2021/12/11 08:03:48;;;;;;;2.63;1.70;;;;;;;2.46;100.00;94656.34;5011648;28;20179;-74
2021/12/11 08:06:14;;;;;;;2.27;1.90;;;;;;;2.47;100.00;94665.97;5011671;28;20182;-71
2021/12/11 08:08:42;;;;;;;2.53;1.93;;;;;;;2.43;100.00;94675.16;5012025;28;20255;-73
2021/12/11 08:11:13;;;;;;;3.50;2.10;;;;;;;2.26;100.00;94687.28;5011902;28;20430;-53
2021/12/11 08:13:41;;;;;;;2.40;1.33;;;;;;;2.07;100.00;94695.53;5012859;28;20172;-62
2021/12/11 08:16:07;;;;;;;3.33;1.90;;;;;;;1.96;100.00;94696.53;5015441;28;20544;-63
2021/12/11 08:18:33;;;;;;;2.40;1.70;;;;;;;1.83;100.00;94706.78;5015654;28;20208;-63
2021/12/11 08:20:58;;;;;;;2.77;1.90;;;;;;;1.80;100.00;94712.88;5015767;28;20668;-64
2021/12/11 08:23:24;;;;;;;3.10;1.43;;;;;;;1.75;100.00;94715.88;5015373;28;20186;-64
2021/12/11 08:25:52;;;;;;;1.57;1.30;;;;;;;1.75;100.00;94729.31;5015177;28;20210;-64
2021/12/11 08:28:24;;;;;;;1.70;1.57;;;;;;;1.75;100.00;94721.25;5015310;28;20668;-60
2021/12/11 08:30:51;;;;;;;2.17;1.97;;;;;;;1.73;100.00;94739.69;5015491;28;20193;-50
2021/12/11 08:33:17;;;;;;;2.10;1.57;;;;;;;1.67;100.00;94741.13;5015193;28;20217;-54
2021/12/11 08:35:44;;;;;;;3.40;2.37;;;;;;;1.71;100.00;94746.56;5015211;28;20638;-54
2021/12/11 08:38:10;;;;;;;2.20;2.00;;;;;;;1.74;100.00;94746.63;5015063;28;20188;-53
2021/12/11 08:40:41;;;;;;;2.20;1.73;;;;;;;1.77;100.00;94745.91;5015111;28;20299;-54
2021/12/11 08:43:09;;;;;;;2.93;2.33;;;;;;;1.81;100.00;94757.47;5014978;28;20183;-53
2021/12/11 08:45:46;;;;;;;2.20;2.00;;;;;;;1.83;100.00;94755.22;5015011;28;20289;-50
2021/12/11 08:48:19;;;;;;;3.63;2.50;;;;;;;1.87;100.00;94758.72;5015076;28;20212;-71
2021/12/11 08:50:48;;;;;;;4.90;3.60;;;;;;;1.91;100.00;94767.63;5015200;28;20232;-52
2021/12/11 08:53:14;;;;;;;2.93;2.40;;;;;;;1.88;100.00;94773.72;5014731;28;20274;-51
2021/12/11 08:55:43;;;;;;;2.20;1.80;;;;;;;1.88;100.00;94787.19;5014822;28;20188;-50
2021/12/11 08:58:11;;;;;;;2.50;2.30;;;;;;;1.88;100.00;94803.34;5014780;28;20188;-51
2021/12/11 09:00:43;;;;;;;3.80;2.70;;;;;;;1.93;100.00;94796.88;5014829;28;20545;-53
2021/12/11 09:03:18;;;;;;;2.80;2.50;;;;;;;1.96;100.00;94802.28;5014711;28;20655;-54
2021/12/11 09:05:52;;;;;;;3.23;2.90;;;;;;;1.99;100.00;94801.56;5014852;28;20202;-50
2021/12/11 09:08:32;;;;;;;3.00;2.70;;;;;;;1.99;100.00;94809.66;5014591;28;20184;-53
2021/12/11 09:11:12;;;;;;;4.40;3.00;;;;;;;2.10;100.00;94813.28;5014765;28;20179;-51
2021/12/11 09:13:54;;;;;;;5.70;4.70;;;;;;;2.16;100.00;94816.44;5014371;28;20187;-48
2021/12/11 09:16:24;;;;;;;4.07;3.47;;;;;;;2.16;100.00;94822.59;5014314;28;20198;-52
2021/12/11 09:18:56;;;;;;;5.97;5.30;;;;;;;2.21;100.00;94830.34;5014325;28;20232;-52
2021/12/11 09:21:30;;;;;;;9.53;7.10;;;;;;;2.28;100.00;94830.44;5013979;28;20195;-51
2021/12/11 09:24:04;;;;;;;6.60;4.67;;;;;;;2.19;100.00;94832.63;5014463;28;20252;-61
2021/12/11 09:26:53;;;;;;;4.00;3.60;;;;;;;2.15;100.00;94841.81;5012760;28;20186;-80
2021/12/11 09:29:32;;;;;;;3.77;3.37;;;;;;;2.18;100.00;94846.44;5014216;28;20197;-80
2021/12/11 09:32:26;;;;;;;4.70;3.80;;;;;;;2.21;100.00;94851.91;5014179;28;20219;-83
2021/12/11 09:35:04;;;;;;;4.30;3.90;;;;;;;2.25;100.00;94863.50;5014302;28;20238;-78
2021/12/11 09:37:31;;;;;;;3.77;3.37;;;;;;;2.25;100.00;94860.78;5014191;28;20218;-79
2021/12/11 09:40:01;;;;;;;4.40;3.57;;;;;;;2.21;100.00;94868.06;5014082;28;20191;-76
2021/12/11 09:42:26;;;;;;;4.17;3.70;;;;;;;2.19;100.00;94875.69;5014201;28;20202;-76
2021/12/11 09:45:10;;;;;;;3.97;3.57;;;;;;;2.21;100.00;94872.66;5014096;28;20248;-61
2021/12/11 09:47:41;;;;;;;3.70;3.37;;;;;;;2.16;100.00;94878.34;5013952;28;20239;-61
2021/12/11 09:50:13;;;;;;;3.53;3.23;;;;;;;2.19;100.00;94883.03;5013737;28;20228;-62
2021/12/11 09:52:41;;;;;;;3.50;3.20;;;;;;;2.25;100.00;94885.03;5013585;28;20183;-61
2021/12/11 09:55:17;;;;;;;4.00;3.27;;;;;;;2.24;100.00;94888.88;5013964;28;20194;-63
2021/12/11 09:57:46;;;;;;;3.83;3.47;;;;;;;2.27;100.00;94892.75;5014113;28;20187;-62
2021/12/11 10:00:32;;;;;;;3.20;2.90;;;;;;;2.28;100.00;94889.69;5013838;28;20282;-50
2021/12/11 10:03:00;;;;;;;3.33;3.00;;;;;;;2.31;100.00;94894.38;5013755;28;20187;-76
2021/12/11 10:05:38;;;;;;;3.47;3.17;;;;;;;2.26;100.00;94897.34;5013598;28;20237;-76
2021/12/11 10:08:30;;;;;;;3.50;3.20;;;;;;;2.34;100.00;94906.31;5013617;28;20198;-75
2021/12/11 10:11:20;;;;;;;4.67;4.20;;;;;;;2.37;100.00;94906.38;5013365;28;20215;-72
2021/12/11 10:13:50;;;;;;;4.27;3.87;;;;;;;2.38;100.00;94904.47;5013654;28;20199;-72
2021/12/11 10:16:19;;;;;;;3.70;3.40;;;;;;;2.41;100.00;94914.50;5013455;28;20201;-72
2021/12/11 10:18:45;;;;;;;5.97;5.00;;;;;;;2.49;100.00;94921.56;5013728;28;20212;-58
2021/12/11 10:21:25;;;;;;;4.17;3.40;;;;;;;2.46;100.00;94922.28;5013330;28;20214;-52
2021/12/11 10:23:53;;;;;;;4.00;3.60;;;;;;;2.50;100.00;94929.28;5013403;28;20194;-51
2021/12/11 10:26:22;;;;;;;4.83;4.33;;;;;;;2.64;100.00;94926.78;5013084;28;20289;-48
2021/12/11 10:28:51;;;;;;;4.00;3.60;;;;;;;2.63;100.00;94933.28;5013343;28;20214;-49
2021/12/11 10:31:22;;;;;;;5.07;3.80;;;;;;;2.62;100.00;94937.13;5013101;28;20191;-48
2021/12/11 10:33:48;;;;;;;5.47;3.60;;;;;;;2.62;100.00;94947.91;5013188;28;20203;-49
2021/12/11 10:36:17;;;;;;;4.97;4.10;;;;;;;2.64;100.00;94950.25;5013079;28;20191;-54
2021/12/11 10:38:44;;;;;;;5.40;3.83;;;;;;;2.59;100.00;94959.41;5012850;28;20259;-61
2021/12/11 10:41:12;;;;;;;3.23;3.03;;;;;;;2.60;100.00;94958.31;5013260;28;20344;-62
2021/12/11 10:43:52;;;;;;;4.13;3.70;;;;;;;2.65;100.00;94962.59;5013090;28;20242;-60
2021/12/11 10:46:18;;;;;;;3.73;3.33;;;;;;;2.71;100.00;94967.31;5012862;28;20214;-62
2021/12/11 10:48:44;;;;;;;4.27;3.43;;;;;;;2.77;100.00;94975.88;5012986;28;20187;-60
2021/12/11 10:51:15;;;;;;;3.50;3.20;;;;;;;2.79;100.00;94974.34;5012427;28;20193;-63
2021/12/11 10:53:46;;;;;;;3.77;2.90;;;;;;;2.70;100.00;94976.53;5012887;28;20199;-61
2021/12/11 10:56:14;;;;;;;3.93;3.30;;;;;;;2.63;100.00;94987.19;5012714;28;20218;-73
2021/12/11 10:58:44;;;;;;;3.90;3.17;;;;;;;2.66;100.00;94983.78;5012859;28;20226;-54
2021/12/11 11:01:25;;;;;;;4.03;3.30;;;;;;;2.66;100.00;94997.25;5012094;28;20194;-45
2021/12/11 11:04:00;;;;;;;8.20;6.20;;;;;;;2.65;100.00;95001.09;5012551;28;20198;-45
2021/12/11 11:06:26;;;;;;;12.07;8.87;;;;;;;2.74;100.00;95000.84;5013818;28;20190;-50
2021/12/11 11:08:52;;;;;;;3.80;3.30;;;;;;;2.63;100.00;95008.75;5012735;28;20191;-51
2021/12/11 11:11:21;;;;;;;3.37;3.07;;;;;;;2.60;100.00;95011.41;5012153;28;20202;-50
2021/12/11 11:13:48;;;;;;;4.97;3.90;;;;;;;2.65;100.00;95006.50;5012318;28;20345;-51
2021/12/11 11:16:16;;;;;;;3.57;3.27;;;;;;;2.61;100.00;95016.44;5012280;28;20184;-55
2021/12/11 11:18:41;;;;;;;5.37;3.20;;;;;;;2.54;100.00;95023.63;5012312;28;20221;-57
2021/12/11 11:21:16;;;;;;;4.37;3.37;;;;;;;2.53;100.00;95030.94;5012406;28;20484;-55
2021/12/11 11:23:43;;;;;;;3.90;3.20;;;;;;;2.53;100.00;95041.72;5012299;28;20202;-54
2021/12/11 11:26:18;;;;;;;4.13;3.57;;;;;;;2.53;100.00;95044.41;5012105;28;20234;-57
2021/12/11 11:28:43;;;;;;;4.70;3.50;;;;;;;2.45;100.00;95041.97;5012282;28;20191;-57
2021/12/11 11:31:20;;;;;;;3.87;3.23;;;;;;;2.43;100.00;95045.00;5012182;28;20210;-71
2021/12/11 11:33:47;;;;;;;3.70;3.30;;;;;;;2.44;100.00;95043.88;5012157;28;20206;-50
2021/12/11 11:36:15;;;;;;;3.30;3.00;;;;;;;2.37;100.00;95054.53;5011945;28;20216;-60
2021/12/11 11:38:43;;;;;;;3.60;3.30;;;;;;;2.35;100.00;95050.63;5011691;28;20187;-60
2021/12/11 11:41:19;;;;;;;4.53;3.90;;;;;;;2.41;100.00;95054.59;5011821;28;20549;-58
2021/12/11 11:43:46;;;;;;;3.90;3.50;;;;;;;2.40;100.00;95064.59;5012020;28;20401;-61
2021/12/11 11:46:12;;;;;;;3.97;3.50;;;;;;;2.44;100.00;95056.56;5011612;28;20222;-61
2021/12/11 11:48:41;;;;;;;4.87;4.10;;;;;;;2.51;100.00;95064.75;5011271;28;20190;-61
2021/12/11 11:51:27;;;;;;;4.20;3.80;;;;;;;2.62;100.00;95071.13;5011854;28;20198;-59
2021/12/11 11:53:53;;;;;;;4.30;3.73;;;;;;;2.68;100.00;95075.06;5011919;28;20241;-57
2021/12/11 11:56:24;;;;;;;3.73;3.37;;;;;;;2.69;100.00;95076.59;5011675;28;20185;-58
2021/12/11 11:58:50;;;;;;;4.57;3.97;;;;;;;2.79;100.00;95079.47;5011877;28;20187;-59
2021/12/11 12:01:24;;;;;;;4.87;3.73;;;;;;;2.91;100.00;95083.88;5011944;28;20274;-57